createdAt,value
2022-11-08T00:01:40.300Z,29.90
2022-11-08T00:04:12.645Z,26.65
2022-11-08T00:07:00.151Z,26.35
2022-11-08T00:09:47.177Z,30.92
2022-11-08T00:12:34.196Z,26.08
2022-11-08T00:15:03.894Z,31.23
2022-11-08T00:17:33.366Z,30.33
2022-11-08T00:20:03.811Z,25.15
2022-11-08T00:22:32.738Z,27.98
2022-11-08T00:25:01.731Z,27.55
2022-11-08T00:27:32.405Z,26.30
2022-11-08T00:30:01.286Z,30.67
2022-11-08T00:32:32.591Z,27.85
2022-11-08T00:35:01.491Z,32.00
2022-11-08T00:37:33.040Z,23.38
2022-11-08T00:40:02.008Z,34.58
2022-11-08T00:42:32.669Z,33.47
2022-11-08T00:45:01.972Z,27.70
2022-11-08T00:47:32.274Z,32.25
2022-11-08T00:50:01.209Z,27.80
2022-11-08T00:52:30.280Z,28.10
2022-11-08T00:55:00.683Z,28.17
2022-11-08T00:57:53.647Z,25.90
2022-11-08T01:00:19.362Z,28.45
2022-11-08T01:02:48.444Z,26.65
2022-11-08T01:05:17.702Z,29.83
2022-11-08T01:07:46.683Z,27.23
2022-11-08T01:10:17.064Z,31.58
2022-11-08T01:12:45.972Z,24.55
2022-11-08T01:15:14.898Z,31.80
2022-11-08T01:17:43.837Z,30.60
2022-11-08T01:20:13.393Z,29.02
2022-11-08T01:22:43.001Z,27.33
2022-11-08T01:25:11.938Z,24.00
2022-11-08T01:27:43.735Z,23.88
2022-11-08T01:30:12.990Z,22.73
2022-11-08T01:32:41.928Z,28.50
2022-11-08T01:35:11.191Z,25.52
2022-11-08T01:37:40.185Z,28.02
2022-11-08T01:40:10.433Z,26.05
2022-11-08T01:42:39.420Z,28.70
2022-11-08T01:45:12.035Z,25.98
2022-11-08T01:47:41.080Z,26.27
2022-11-08T01:50:14.729Z,32.88
2022-11-08T01:52:47.469Z,34.85
2022-11-08T01:55:20.301Z,42.10
2022-11-08T01:57:52.891Z,35.50
2022-11-08T02:00:23.864Z,34.90
2022-11-08T02:02:58.348Z,24.70
2022-11-08T02:05:29.569Z,29.77
2022-11-08T02:08:03.696Z,25.35
2022-11-08T02:10:36.157Z,36.67
2022-11-08T02:13:10.732Z,30.90
2022-11-08T02:15:44.472Z,27.48
2022-11-08T02:18:14.720Z,27.02
2022-11-08T02:20:51.432Z,30.90
2022-11-08T02:23:26.961Z,22.13
2022-11-08T02:25:57.327Z,30.30
2022-11-08T02:28:26.652Z,26.13
2022-11-08T02:30:55.860Z,31.80
2022-11-08T02:33:24.979Z,30.77
2022-11-08T02:35:57.456Z,33.05
2022-11-08T02:38:27.862Z,28.92
2022-11-08T02:40:59.253Z,30.15
2022-11-08T02:43:28.201Z,30.40
2022-11-08T02:45:59.326Z,33.22
2022-11-08T02:48:28.656Z,34.60
2022-11-08T02:50:57.647Z,32.03
2022-11-08T02:53:26.557Z,31.40
2022-11-08T02:55:55.696Z,32.58
2022-11-08T02:58:28.066Z,35.97
2022-11-08T03:00:57.134Z,29.45
2022-11-08T03:03:26.161Z,30.20
2022-11-08T03:05:55.121Z,27.58
2022-11-08T03:08:24.142Z,29.73
2022-11-08T03:10:53.032Z,28.27
2022-11-08T03:13:21.889Z,26.25
2022-11-08T03:15:52.226Z,30.33
2022-11-08T03:18:21.278Z,29.13
2022-11-08T03:20:50.268Z,26.75
2022-11-08T03:23:19.248Z,30.85
2022-11-08T03:25:48.339Z,27.05
2022-11-08T03:28:21.683Z,35.35
2022-11-08T03:30:54.222Z,38.20
2022-11-08T03:33:23.253Z,30.73
2022-11-08T03:35:53.045Z,29.42
2022-11-08T03:38:22.140Z,24.40
2022-11-08T03:40:51.048Z,27.25
2022-11-08T03:43:20.049Z,28.77
2022-11-08T03:45:49.005Z,30.88
2022-11-08T03:48:19.656Z,27.55
2022-11-08T03:50:48.943Z,32.90
2022-11-08T03:53:17.822Z,29.77
2022-11-08T03:55:46.930Z,37.63
2022-11-08T03:58:16.412Z,31.90
2022-11-08T04:00:45.556Z,24.00
2022-11-08T04:03:14.495Z,25.00
2022-11-08T04:05:48.457Z,30.60
2022-11-08T04:08:18.097Z,24.95
2022-11-08T04:10:47.303Z,29.33
2022-11-08T04:13:48.260Z,28.23
2022-11-08T04:16:18.097Z,28.52
2022-11-08T04:19:04.511Z,33.10
2022-11-08T04:21:34.837Z,29.20
2022-11-08T04:24:03.724Z,33.70
2022-11-08T04:26:32.791Z,32.25
2022-11-08T04:29:04.272Z,27.75
2022-11-08T04:31:33.255Z,27.02
2022-11-08T04:34:02.348Z,27.80
2022-11-08T04:36:31.419Z,32.95
2022-11-08T04:39:01.826Z,31.70
2022-11-08T04:41:30.884Z,32.78
2022-11-08T04:43:59.876Z,28.42
2022-11-08T04:46:30.548Z,36.22
2022-11-08T04:49:01.339Z,33.20
2022-11-08T04:51:32.215Z,39.45
2022-11-08T04:54:06.352Z,35.05
2022-11-08T04:56:35.420Z,30.42
2022-11-08T04:59:08.282Z,30.33
2022-11-08T05:01:40.100Z,28.30
2022-11-08T05:04:09.302Z,30.45
2022-11-08T05:06:38.285Z,31.13
2022-11-08T05:09:08.755Z,28.85
2022-11-08T05:11:37.723Z,25.15
2022-11-08T05:14:06.596Z,29.50
2022-11-08T05:16:35.510Z,28.60
2022-11-08T05:19:05.406Z,29.25
2022-11-08T05:21:54.401Z,22.70
2022-11-08T05:24:24.692Z,21.63
2022-11-08T05:26:53.678Z,29.73
2022-11-08T05:29:22.587Z,23.88
2022-11-08T05:31:51.548Z,20.60
2022-11-08T05:34:20.473Z,21.85
2022-11-08T05:36:49.386Z,23.30
2022-11-08T05:39:18.321Z,25.42
2022-11-08T05:41:49.186Z,26.95
2022-11-08T05:44:18.380Z,25.25
2022-11-08T05:46:47.325Z,23.00
2022-11-08T05:49:16.307Z,20.30
2022-11-08T05:51:45.254Z,20.38
2022-11-08T05:54:14.299Z,18.23
2022-11-08T05:56:43.224Z,25.55
2022-11-08T05:59:13.536Z,21.00
2022-11-08T06:01:43.356Z,24.38
2022-11-08T06:04:12.408Z,20.75
2022-11-08T06:06:41.412Z,17.15
2022-11-08T06:09:10.361Z,24.65
2022-11-08T06:11:39.771Z,25.33
2022-11-08T06:14:09.080Z,20.38
2022-11-08T06:16:40.374Z,19.67
2022-11-08T06:19:09.244Z,20.38
2022-11-08T06:21:38.207Z,19.63
2022-11-08T06:24:08.009Z,17.05
2022-11-08T06:26:37.131Z,16.33
2022-11-08T06:29:06.207Z,19.27
2022-11-08T06:31:39.307Z,19.20
2022-11-08T06:34:12.510Z,16.70
2022-11-08T06:36:41.619Z,17.10
2022-11-08T06:39:10.870Z,20.23
2022-11-08T06:41:39.821Z,17.38
2022-11-08T06:44:08.787Z,18.45
2022-11-08T06:46:37.768Z,17.25
2022-11-08T06:49:06.652Z,21.48
2022-11-08T06:51:37.013Z,18.17
2022-11-08T06:54:08.818Z,20.33
2022-11-08T06:56:38.322Z,20.98
2022-11-08T06:59:07.407Z,19.23
2022-11-08T07:01:36.645Z,19.35
2022-11-08T07:04:05.890Z,21.83
2022-11-08T07:06:36.429Z,18.90
2022-11-08T07:09:05.397Z,21.25
2022-11-08T07:11:34.412Z,25.88
2022-11-08T07:14:03.332Z,21.83
2022-11-08T07:16:32.353Z,17.73
2022-11-08T07:19:01.306Z,22.35
2022-11-08T07:21:30.233Z,19.42
2022-11-08T07:24:00.590Z,23.88
2022-11-08T07:26:29.959Z,24.63
2022-11-08T07:28:59.070Z,23.80
2022-11-08T07:31:28.185Z,22.70
2022-11-08T07:33:57.347Z,20.85
2022-11-08T07:36:26.287Z,24.42
2022-11-08T07:38:55.282Z,30.35
2022-11-08T07:41:25.611Z,33.72
2022-11-08T07:43:54.537Z,29.85
2022-11-08T07:46:23.509Z,34.42
2022-11-08T07:48:52.417Z,31.65
2022-11-08T07:51:21.344Z,36.30
2022-11-08T07:53:50.248Z,37.90
2022-11-08T07:56:19.201Z,31.88
2022-11-08T07:58:49.515Z,28.05
2022-11-08T08:01:18.407Z,31.83
2022-11-08T08:03:47.389Z,26.33
2022-11-08T08:06:16.525Z,27.77
2022-11-08T08:08:45.468Z,27.48
2022-11-08T08:11:14.602Z,28.33
2022-11-08T08:13:43.539Z,29.15
2022-11-08T08:16:13.883Z,31.20
2022-11-08T08:18:42.771Z,26.02
2022-11-08T08:21:11.744Z,29.05
2022-11-08T08:23:40.644Z,33.88
2022-11-08T08:26:09.802Z,31.35
2022-11-08T08:28:38.940Z,35.97
2022-11-08T08:31:08.253Z,32.28
2022-11-08T08:33:39.731Z,34.17
2022-11-08T08:36:09.370Z,29.45
2022-11-08T08:38:44.075Z,30.42
2022-11-08T08:43:42.128Z,34.10
2022-11-08T08:46:11.249Z,35.00
2022-11-08T08:48:41.738Z,30.55
2022-11-08T08:51:10.713Z,30.77
2022-11-08T08:53:39.691Z,34.63
2022-11-08T08:56:09.095Z,38.20
2022-11-08T08:58:38.186Z,34.67
2022-11-08T09:03:59.624Z,31.35
2022-11-08T09:06:28.650Z,34.60
2022-11-08T09:08:57.602Z,31.35
2022-11-08T09:11:26.718Z,26.40
2022-11-08T09:13:55.746Z,30.20
2022-11-08T09:16:24.774Z,26.23
2022-11-08T09:18:53.881Z,28.35
2022-11-08T09:21:24.396Z,24.83
2022-11-08T09:23:53.383Z,26.15
2022-11-08T09:26:22.369Z,29.95
2022-11-08T09:28:51.353Z,25.25
2022-11-08T09:31:20.439Z,25.55
2022-11-08T09:33:51.424Z,29.92
2022-11-08T09:36:20.589Z,25.10
2022-11-08T09:38:50.918Z,27.15
2022-11-08T09:41:44.251Z,26.60
2022-11-08T09:44:24.646Z,29.35
2022-11-08T09:46:56.812Z,24.83
2022-11-08T09:49:31.843Z,32.28
2022-11-08T09:52:02.787Z,22.45
2022-11-08T09:54:40.482Z,23.80
2022-11-08T09:57:17.824Z,18.25
2022-11-08T09:59:51.767Z,20.92
2022-11-08T10:02:23.073Z,16.42
2022-11-08T10:04:58.417Z,15.63
2022-11-08T10:10:38.146Z,21.95
2022-11-08T10:13:15.275Z,16.55
2022-11-08T10:15:53.311Z,17.80
2022-11-08T10:18:41.205Z,17.02
2022-11-08T10:21:22.299Z,18.05
2022-11-08T10:23:58.923Z,19.10
2022-11-08T10:26:42.723Z,23.73
2022-11-08T10:29:19.291Z,20.20
2022-11-08T10:31:49.965Z,24.30
2022-11-08T10:34:24.179Z,17.90
2022-11-08T10:36:59.514Z,21.73
2022-11-08T10:39:31.990Z,30.73
2022-11-08T10:42:09.411Z,21.55
2022-11-08T10:44:41.947Z,20.05
2022-11-08T10:47:18.852Z,23.25
2022-11-08T10:49:48.237Z,23.08
2022-11-08T10:52:42.183Z,18.17
2022-11-08T10:55:25.615Z,25.65
2022-11-08T10:57:56.239Z,25.23
2022-11-08T11:00:29.397Z,20.92
2022-11-08T11:03:00.783Z,27.40
2022-11-08T11:05:33.631Z,21.27
2022-11-08T11:08:19.149Z,25.17
2022-11-08T11:10:50.335Z,21.98
2022-11-08T11:13:24.312Z,20.63
2022-11-08T11:15:59.681Z,24.52
2022-11-08T11:18:34.352Z,21.48
2022-11-08T11:21:10.148Z,19.88
2022-11-08T11:23:43.937Z,22.25
2022-11-08T11:26:29.967Z,21.05
2022-11-08T11:29:21.561Z,29.95
2022-11-08T11:31:53.130Z,36.40
2022-11-08T11:34:31.310Z,25.30
2022-11-08T11:37:07.036Z,23.08
2022-11-08T11:39:44.395Z,25.85
2022-11-08T11:42:47.534Z,28.80
2022-11-08T11:45:21.186Z,26.35
2022-11-08T11:47:54.389Z,25.95
2022-11-08T11:50:32.474Z,25.20
2022-11-08T11:53:05.519Z,24.65
2022-11-08T11:55:48.398Z,24.80
2022-11-08T11:58:30.767Z,23.83
2022-11-08T12:01:14.396Z,22.42
2022-11-08T12:04:18.343Z,21.58
2022-11-08T12:06:57.729Z,17.60
2022-11-08T12:09:43.137Z,17.55
2022-11-08T12:12:26.518Z,20.73
2022-11-08T12:15:02.571Z,17.65
2022-11-08T12:17:57.907Z,16.50
2022-11-08T12:20:47.275Z,20.02
2022-11-08T12:23:44.671Z,16.65
2022-11-08T12:26:21.960Z,19.05
2022-11-08T12:29:04.443Z,19.23
2022-11-08T12:31:36.827Z,18.90
2022-11-08T12:34:19.788Z,19.80
2022-11-08T12:37:17.405Z,19.33
2022-11-08T12:39:50.792Z,16.65
2022-11-08T12:42:43.161Z,25.95
2022-11-08T12:45:34.257Z,19.38
2022-11-08T12:48:12.581Z,21.90
2022-11-08T12:51:00.379Z,17.30
2022-11-08T12:53:48.652Z,19.65
2022-11-08T12:56:23.528Z,16.00
2022-11-08T12:58:53.683Z,17.60
2022-11-08T13:01:24.458Z,19.05
2022-11-08T13:04:26.197Z,15.68
2022-11-08T13:07:04.170Z,15.98
2022-11-08T13:09:43.854Z,19.35
2022-11-08T13:12:26.410Z,18.77
2022-11-08T13:14:55.732Z,16.52
2022-11-08T13:17:26.697Z,14.43
2022-11-08T13:20:04.412Z,14.80
2022-11-08T13:23:01.357Z,18.10
2022-11-08T13:28:04.038Z,19.25
2022-11-08T13:30:38.760Z,12.48
2022-11-08T13:33:26.818Z,13.50
2022-11-08T13:36:09.865Z,10.32
2022-11-08T13:38:51.053Z,11.07
2022-11-08T13:41:21.790Z,16.50
2022-11-08T13:43:52.010Z,15.63
2022-11-08T13:46:49.288Z,18.38
2022-11-08T13:49:24.315Z,16.75
2022-11-08T13:52:34.796Z,14.55
2022-11-08T13:55:05.500Z,12.38
2022-11-08T13:57:58.133Z,15.57
2022-11-08T14:00:46.064Z,13.50
2022-11-08T14:03:52.689Z,12.27
2022-11-08T14:09:03.867Z,14.40
2022-11-08T14:11:52.366Z,12.70
2022-11-08T14:14:52.949Z,15.32
2022-11-08T14:17:38.809Z,10.35
2022-11-08T14:20:20.501Z,13.25
2022-11-08T14:22:50.704Z,13.30
2022-11-08T14:25:26.244Z,14.70
2022-11-08T14:27:56.952Z,13.98
2022-11-08T14:30:26.436Z,13.48
2022-11-08T14:33:17.173Z,13.90
2022-11-08T14:35:55.050Z,15.73
2022-11-08T14:38:24.577Z,14.50
2022-11-08T14:40:56.466Z,14.82
2022-11-08T14:43:28.114Z,15.30
2022-11-08T14:45:58.289Z,17.02
2022-11-08T14:48:31.484Z,21.63
2022-11-08T14:51:01.684Z,17.05
2022-11-08T14:53:32.462Z,24.45
2022-11-08T14:56:14.452Z,25.50
2022-11-08T14:58:45.425Z,16.02
2022-11-08T15:01:17.286Z,21.50
2022-11-08T15:03:48.947Z,17.75
2022-11-08T15:06:18.411Z,17.98
2022-11-08T15:08:51.068Z,14.75
2022-11-08T15:11:29.772Z,12.45
2022-11-08T15:14:03.407Z,12.43
2022-11-08T15:16:44.183Z,12.73
2022-11-08T15:19:28.959Z,12.52
2022-11-08T15:21:59.136Z,12.47
2022-11-08T15:24:35.746Z,15.57
2022-11-08T15:27:16.151Z,13.57
2022-11-08T15:29:54.568Z,12.55
2022-11-08T15:32:24.465Z,7.80
2022-11-08T15:34:56.006Z,14.13
2022-11-08T15:37:31.089Z,11.07
2022-11-08T15:40:03.951Z,8.40
2022-11-08T15:42:35.095Z,7.63
2022-11-08T15:45:08.090Z,7.55
2022-11-08T15:47:46.145Z,11.45
2022-11-08T15:50:20.888Z,8.65
2022-11-08T15:52:52.041Z,10.02
2022-11-08T15:55:25.304Z,9.32
2022-11-08T15:57:55.681Z,8.30
2022-11-08T16:00:28.736Z,8.43
2022-11-08T16:02:59.374Z,7.60
2022-11-08T16:05:29.805Z,10.68
2022-11-08T16:07:59.367Z,9.07
2022-11-08T16:10:31.958Z,10.00
2022-11-08T16:13:01.740Z,10.27
2022-11-08T16:15:34.593Z,10.75
2022-11-08T16:18:06.482Z,11.55
2022-11-08T16:20:37.262Z,11.55
2022-11-08T16:23:08.058Z,15.00
2022-11-08T16:25:40.888Z,15.15
2022-11-08T16:28:20.750Z,11.65
2022-11-08T16:30:51.446Z,10.93
2022-11-08T16:33:22.598Z,12.68
2022-11-08T16:35:53.111Z,9.02
2022-11-08T16:38:27.365Z,9.85
2022-11-08T16:40:56.922Z,8.60
2022-11-08T16:43:26.225Z,11.57
2022-11-08T16:46:07.377Z,9.35
2022-11-08T16:48:38.986Z,12.18
2022-11-08T16:51:14.070Z,10.80
2022-11-08T16:53:43.415Z,11.55
2022-11-08T16:56:13.003Z,10.85
2022-11-08T16:58:42.440Z,13.23
2022-11-08T17:01:17.732Z,15.18
2022-11-08T17:03:47.329Z,11.27
2022-11-08T17:06:18.750Z,9.80
2022-11-08T17:08:48.205Z,10.60
2022-11-08T17:11:19.749Z,7.72
2022-11-08T17:13:49.540Z,11.65
2022-11-08T17:16:21.655Z,10.68
2022-11-08T17:18:52.907Z,11.30
2022-11-08T17:21:44.601Z,15.00
2022-11-08T17:24:15.726Z,13.07
2022-11-08T17:26:49.256Z,12.93
2022-11-08T17:29:18.558Z,11.98
2022-11-08T17:31:49.287Z,13.48
2022-11-08T17:34:18.796Z,11.85
2022-11-08T17:36:52.770Z,11.38
2022-11-08T17:39:21.979Z,11.23
2022-11-08T17:41:51.169Z,13.13
2022-11-08T17:44:20.604Z,9.65
2022-11-08T17:46:51.517Z,10.80
2022-11-08T17:49:20.712Z,11.30
2022-11-08T17:51:54.543Z,9.30
2022-11-08T17:54:33.493Z,12.88
2022-11-08T17:57:06.327Z,13.93
2022-11-08T17:59:36.380Z,15.98
2022-11-08T18:02:07.541Z,15.40
2022-11-08T18:04:37.103Z,12.82
2022-11-08T18:07:06.674Z,10.18
2022-11-08T18:09:35.925Z,12.25
2022-11-08T18:12:05.666Z,11.57
2022-11-08T18:14:36.635Z,11.95
2022-11-08T18:17:07.416Z,13.90
2022-11-08T18:19:37.652Z,11.57
2022-11-08T18:22:07.338Z,13.45
2022-11-08T18:24:38.337Z,12.45
2022-11-08T18:27:10.157Z,13.88
2022-11-08T18:29:41.977Z,15.55
2022-11-08T18:32:13.938Z,15.68
2022-11-08T18:34:46.960Z,11.35
2022-11-08T18:37:17.861Z,12.95
2022-11-08T18:39:48.112Z,12.48
2022-11-08T18:42:23.581Z,15.32
2022-11-08T18:45:01.271Z,12.50
2022-11-08T18:47:37.260Z,16.10
2022-11-08T18:50:09.663Z,14.80
2022-11-08T18:52:39.419Z,12.60
2022-11-08T18:55:09.691Z,10.88
2022-11-08T18:57:40.248Z,17.65
2022-11-08T19:00:11.434Z,14.32
2022-11-08T19:02:42.385Z,15.50
2022-11-08T19:05:11.770Z,12.68
2022-11-08T19:07:41.152Z,17.30
2022-11-08T19:10:11.121Z,14.88
2022-11-08T19:12:41.540Z,15.45
2022-11-08T19:15:11.270Z,16.05
2022-11-08T19:17:43.360Z,15.35
2022-11-08T19:20:14.519Z,15.38
2022-11-08T19:22:43.824Z,14.18
2022-11-08T19:25:13.075Z,16.05
2022-11-08T19:27:42.529Z,16.08
2022-11-08T19:30:12.643Z,16.70
2022-11-08T19:32:43.519Z,18.85
2022-11-08T19:35:12.748Z,14.40
2022-11-08T19:37:41.938Z,20.95
2022-11-08T19:40:12.251Z,19.33
2022-11-08T19:42:44.735Z,19.95
2022-11-08T19:45:13.887Z,20.77
2022-11-08T19:47:47.464Z,15.85
2022-11-08T19:50:16.869Z,16.50
2022-11-08T19:52:45.954Z,18.08
2022-11-08T19:55:15.466Z,22.88
2022-11-08T19:57:44.614Z,23.25
2022-11-08T20:00:15.873Z,21.50
2022-11-08T20:02:46.593Z,20.25
2022-11-08T20:05:16.566Z,20.23
2022-11-08T20:07:46.637Z,15.38
2022-11-08T20:10:15.956Z,18.85
2022-11-08T20:12:46.372Z,20.05
2022-11-08T20:15:15.742Z,18.27
2022-11-08T20:17:46.291Z,17.42
2022-11-08T20:20:15.395Z,17.17
2022-11-08T20:22:48.047Z,21.30
2022-11-08T20:25:17.569Z,35.40
2022-11-08T20:27:46.665Z,37.35
2022-11-08T20:30:16.213Z,46.08
2022-11-08T20:32:46.667Z,46.38
2022-11-08T20:35:19.123Z,38.10
2022-11-08T20:37:52.379Z,32.20
2022-11-08T20:40:21.551Z,25.25
2022-11-08T20:42:50.772Z,24.13
2022-11-08T20:45:19.899Z,24.20
2022-11-08T20:47:50.645Z,23.27
2022-11-08T20:50:19.810Z,21.15
2022-11-08T20:52:48.973Z,20.50
2022-11-08T20:55:18.196Z,23.65
2022-11-08T20:57:47.781Z,18.98
2022-11-08T21:00:32.901Z,18.15
2022-11-08T21:03:13.757Z,16.05
2022-11-08T21:05:51.549Z,21.23
2022-11-08T21:11:11.408Z,17.88
2022-11-08T21:13:42.990Z,21.80
2022-11-08T21:16:29.477Z,22.45
2022-11-08T21:19:00.958Z,24.85
2022-11-08T21:21:30.990Z,19.73
2022-11-08T21:24:00.313Z,23.63
2022-11-08T21:26:29.337Z,27.48
2022-11-08T21:28:58.367Z,28.08
2022-11-08T21:31:27.410Z,25.48
2022-11-08T21:33:56.442Z,28.75
2022-11-08T21:36:29.250Z,28.50
2022-11-08T21:38:58.470Z,30.58
2022-11-08T21:41:27.571Z,24.52
2022-11-08T21:43:56.789Z,24.00
2022-11-08T21:46:27.911Z,25.45
2022-11-08T21:48:58.502Z,29.13
2022-11-08T21:51:30.567Z,30.30
2022-11-08T21:54:00.630Z,32.13
2022-11-08T21:56:32.094Z,25.30
2022-11-08T21:59:01.712Z,29.23
2022-11-08T22:01:31.379Z,24.00
2022-11-08T22:04:01.151Z,25.58
2022-11-08T22:06:31.819Z,25.20
2022-11-08T22:09:00.992Z,25.35
2022-11-08T22:11:30.166Z,23.50
2022-11-08T22:13:59.394Z,24.48
2022-11-08T22:16:28.573Z,25.13
2022-11-08T22:19:04.753Z,20.50
2022-11-08T22:21:39.586Z,25.23
2022-11-08T22:24:11.230Z,26.88
2022-11-08T22:26:41.183Z,20.25
2022-11-08T22:29:10.811Z,22.40
2022-11-08T22:31:40.389Z,21.10
2022-11-08T22:34:10.502Z,21.02
2022-11-08T22:36:45.262Z,18.83
2022-11-08T22:41:47.517Z,27.40
2022-11-08T22:44:17.740Z,26.30
2022-11-08T22:46:48.193Z,26.50
2022-11-08T22:49:17.715Z,28.05
2022-11-08T22:51:48.334Z,26.67
2022-11-08T22:54:17.530Z,25.35
2022-11-08T22:56:46.870Z,21.52
2022-11-08T22:59:16.052Z,24.17
2022-11-08T23:01:45.221Z,18.33
2022-11-08T23:04:14.393Z,22.40
2022-11-08T23:06:44.041Z,29.10
2022-11-08T23:09:14.647Z,19.73
2022-11-08T23:12:00.826Z,26.33
2022-11-08T23:14:47.279Z,22.00
2022-11-08T23:17:16.245Z,27.73
2022-11-08T23:20:02.696Z,26.95
2022-11-08T23:22:49.735Z,31.88
2022-11-08T23:25:20.111Z,24.33
2022-11-08T23:28:06.643Z,22.88
2022-11-08T23:30:53.012Z,23.08
2022-11-08T23:33:22.249Z,28.52
2022-11-08T23:36:15.668Z,29.35
2022-11-08T23:38:45.097Z,20.58
2022-11-08T23:41:35.310Z,29.20
2022-11-08T23:44:21.661Z,28.48
2022-11-08T23:46:50.881Z,27.35
2022-11-08T23:49:19.854Z,26.17
2022-11-08T23:51:48.940Z,28.08
2022-11-08T23:54:17.947Z,30.27
2022-11-08T23:56:48.861Z,27.20
2022-11-08T23:59:18.022Z,27.83
